Time;durP1;ratioP1;P1;durP2;ratioP2;P2;SDS_P1;SDS_P2;PMS_P1;PMS_P2;Temp;Humidity;BMP_temperature;BMP_pressure;BME280_temperature;BME280_humidity;BME280_pressure;Samples;Min_cycle;Max_cycle;Signal;HPM_P1;HPM_P2
2022/01/24 00:00:08;;;;;;;;;;;;;;;-5.11;89.57;100833.27;1691105;84;20121;-83
2022/01/24 00:02:36;;;;;;;;;;;;;;;-5.16;89.04;100835.66;1691379;83;20522;-79
2022/01/24 00:05:03;;;;;;;;;;;;;;;-5.19;89.05;100838.69;1691157;85;20177;-82
2022/01/24 00:07:29;;;;;;;;;;;;;;;-5.25;88.63;100834.09;1691436;84;21079;-82
2022/01/24 00:09:59;;;;;;;;;;;;;;;-5.28;88.64;100837.13;1691208;83;20149;-82
2022/01/24 00:12:35;;;;;;;;;;;;;;;-5.30;89.02;100836.48;1691371;84;20174;-81
2022/01/24 00:17:41;;;;;;;;;;;;;;;-5.29;89.03;100847.01;1691605;85;20453;-81
2022/01/24 00:28:08;;;;;;;;;;;;;;;-5.27;89.23;100857.53;1691336;85;20273;-78
2022/01/24 00:30:35;;;;;;;;;;;;;;;-5.25;88.88;100856.85;1691402;85;20161;-78
2022/01/24 00:33:01;;;;;;;;;;;;;;;-5.28;88.31;100861.23;1691554;85;21504;-78
2022/01/24 00:35:27;;;;;;;;;;;;;;;-5.33;88.23;100865.78;1691291;85;20137;-78
2022/01/24 00:37:58;;;;;;;;;;;;;;;-5.37;88.01;100872.50;1691196;85;20129;-78
2022/01/24 00:40:21;;;;;;;;;;;;;;;-5.42;87.94;100872.21;1691007;83;20145;-77
2022/01/24 00:42:57;;;;;;;;;;;;;;;-5.45;88.28;100873.91;1691677;85;20177;-74
2022/01/24 00:45:34;;;;;;;;;;;;;;;-5.47;88.22;100874.09;1691324;83;21144;-75
2022/01/24 00:55:59;;;;;;;;;;;;;;;-5.49;89.07;100869.42;1691665;85;20185;-76
2022/01/24 00:58:25;;;;;;;;;;;;;;;-5.47;88.99;100872.75;1691811;85;21468;-76
2022/01/24 01:00:51;;;;;;;;;;;;;;;-5.46;88.56;100873.08;1691314;85;20469;-79
2022/01/24 01:03:19;;;;;;;;;;;;;;;-5.50;88.35;100873.11;1691129;83;20165;-78
2022/01/24 01:19:04;;;;;;;;;;;;;;;-5.54;88.33;100877.15;1691922;85;20173;-75
2022/01/24 01:21:32;;;;;;;;;;;;;;;-5.55;88.52;100867.45;1691667;83;20193;-78
2022/01/24 01:23:59;;;;;;;;;;;;;;;-5.54;88.50;100871.80;1691823;85;21547;-79
2022/01/24 01:26:50;;;;;;;;;;;;;;;-5.52;88.45;100873.79;1691457;85;20180;-78
2022/01/24 01:29:19;;;;;;;;;;;;;;;-5.50;88.56;100877.13;1691206;84;20185;-78
2022/01/24 01:55:56;;;;;;;;;;;;;;;-5.66;89.76;100874.56;1691554;85;20476;-78
2022/01/24 01:58:22;;;;;;;;;;;;;;;-5.68;90.01;100876.58;1691475;85;20420;-76
2022/01/24 02:00:54;;;;;;;;;;;;;;;-5.68;90.21;100878.75;1691504;83;20136;-76
2022/01/24 02:03:21;;;;;;;;;;;;;;;-5.71;90.11;100887.64;1690360;83;21188;-76
2022/01/24 02:05:47;;;;;;;;;;;;;;;-5.80;90.56;100880.70;1691356;85;20730;-77
2022/01/24 02:08:15;;;;;;;;;;;;;;;-5.87;90.66;100880.58;1691467;83;20117;-76
2022/01/24 02:10:43;;;;;;;;;;;;;;;-5.92;90.65;100879.47;1691465;85;20352;-76
2022/01/24 02:13:10;;;;;;;;;;;;;;;-5.98;90.70;100877.00;1691960;83;20464;-76
2022/01/24 02:18:29;;;;;;;;;;;;;;;-6.17;91.25;100878.77;1691943;85;20085;-76
2022/01/24 02:25:52;;;;;;;;;;;;;;;-6.26;92.07;100889.99;1691955;85;20181;-76
2022/01/24 02:28:20;;;;;;;;;;;;;;;-6.30;91.61;100883.83;1691660;85;21505;-79
2022/01/24 02:33:32;;;;;;;;;;;;;;;-6.45;91.57;100881.91;1691847;85;20150;-76
2022/01/24 02:35:58;;;;;;;;;;;;;;;-6.51;91.67;100881.77;1691379;83;20579;-73
2022/01/24 02:38:47;;;;;;;;;;;;;;;-6.54;92.02;100882.12;1691713;85;20180;-73
2022/01/24 02:49:33;;;;;;;;;;;;;;;-6.73;92.49;100894.02;1691907;85;20468;-74
2022/01/24 02:52:08;;;;;;;;;;;;;;;-6.82;92.77;100890.53;1691714;84;20453;-74
2022/01/24 02:54:36;;;;;;;;;;;;;;;-6.90;93.24;100887.87;1691835;85;21139;-75
2022/01/24 02:57:03;;;;;;;;;;;;;;;-6.96;93.34;100884.58;1691898;85;20169;-75
2022/01/24 02:59:29;;;;;;;;;;;;;;;-7.00;93.59;100889.92;1691785;83;20182;-74
2022/01/24 03:01:55;;;;;;;;;;;;;;;-7.06;93.89;100898.61;1692025;85;20162;-75
2022/01/24 03:04:21;;;;;;;;;;;;;;;-7.10;93.99;100895.94;1691761;83;20137;-75
2022/01/24 03:06:48;;;;;;;;;;;;;;;-7.09;94.20;100902.95;1691565;85;21965;-76
2022/01/24 03:09:15;;;;;;;;;;;;;;;-7.09;94.35;100902.95;1700644;84;20194;-75
2022/01/24 03:14:23;;;;;;;;;;;;;;;-7.10;94.40;100897.28;1703233;84;20816;-75
2022/01/24 03:16:49;;;;;;;;;;;;;;;-7.09;95.23;100901.61;1703458;83;20213;-74
2022/01/24 03:19:15;;;;;;;;;;;;;;;-7.10;95.02;100902.62;1703285;84;21443;-74
2022/01/24 03:21:42;;;;;;;;;;;;;;;-7.10;94.87;100906.12;1703439;83;20472;-77
2022/01/24 03:24:12;;;;;;;;;;;;;;;-7.11;94.66;100911.63;1703244;84;20202;-77
2022/01/24 03:26:39;;;;;;;;;;;;;;;-7.14;94.54;100911.45;1703474;84;20477;-81
2022/01/24 03:29:05;;;;;;;;;;;;;;;-7.17;94.41;100913.62;1703072;84;20214;-76
2022/01/24 03:31:33;;;;;;;;;;;;;;;-7.19;94.72;100908.95;1703286;84;21962;-74
2022/01/24 03:34:00;;;;;;;;;;;;;;;-7.22;94.49;100914.13;1703158;84;20137;-74
2022/01/24 03:36:26;;;;;;;;;;;;;;;-7.30;94.28;100912.80;1703375;84;20174;-74
2022/01/24 03:38:53;;;;;;;;;;;;;;;-7.36;94.46;100914.30;1703298;83;20137;-78
2022/01/24 03:41:19;;;;;;;;;;;;;;;-7.39;94.55;100911.95;1703383;84;20205;-79
2022/01/24 03:43:45;;;;;;;;;;;;;;;-7.41;94.54;100917.12;1703341;84;21120;-78
2022/01/24 03:48:50;;;;;;;;;;;;;;;-7.43;94.58;100925.79;1703408;84;20142;-74
2022/01/24 03:51:15;;;;;;;;;;;;;;;-7.47;94.25;100924.45;1703395;84;20126;-76
2022/01/24 03:53:42;;;;;;;;;;;;;;;-7.49;94.35;100925.12;1703625;83;20166;-78
2022/01/24 03:56:09;;;;;;;;;;;;;;;-7.52;94.65;100930.31;1703381;83;20972;-78
2022/01/24 03:58:35;;;;;;;;;;;;;;;-7.54;94.65;100936.81;1703433;83;20172;-77
2022/01/24 04:01:02;;;;;;;;;;;;;;;-7.59;94.66;100932.47;1703690;84;20425;-77
2022/01/24 04:03:28;;;;;;;;;;;;;;;-7.63;94.82;100930.62;1696662;83;20129;-80
2022/01/24 04:05:55;;;;;;;;;;;;;;;-7.67;94.92;100926.62;1691385;85;20177;-79
2022/01/24 04:08:21;;;;;;;;;;;;;;;-7.68;94.99;100921.78;1690167;83;21107;-75
2022/01/24 04:10:51;;;;;;;;;;;;;;;-7.68;95.04;100921.78;1704550;83;20458;-78
2022/01/24 04:13:27;;;;;;;;;;;;;;;-7.73;94.91;100924.11;1687937;84;20089;-79
2022/01/24 04:16:22;;;;;;;;;;;;;;;-7.76;94.97;100926.27;1687670;84;20431;-79
2022/01/24 04:18:38;;;;;;;;;;;;;;;-7.80;95.02;100919.59;1685652;85;20177;-78
2022/01/24 04:23:44;;;;;;;;;;;;;;;-7.95;95.01;100925.22;1688161;85;20117;-74
2022/01/24 04:26:10;;;;;;;;;;;;;;;-7.92;95.88;100931.55;1688116;84;20437;-73
2022/01/24 04:28:37;;;;;;;;;;;;;;;-7.94;95.65;100934.38;1688119;85;20654;-74
2022/01/24 04:31:04;;;;;;;;;;;;;;;-7.93;95.44;100935.22;1688094;85;20170;-74
2022/01/24 04:33:30;;;;;;;;;;;;;;;-7.92;95.54;100932.89;1688194;85;21500;-74
2022/01/24 04:35:56;;;;;;;;;;;;;;;-7.91;95.46;100940.72;1688227;85;20169;-74
2022/01/24 04:38:23;;;;;;;;;;;;;;;-7.90;95.26;100946.89;1688345;85;20172;-73
2022/01/24 04:40:50;;;;;;;;;;;;;;;-7.90;95.25;100946.39;1688170;85;20869;-74
2022/01/24 04:43:33;;;;;;;;;;;;;;;-7.88;95.22;100947.56;1688307;85;20173;-77
2022/01/24 04:56:40;;;;;;;;;;;;;;;-7.97;94.66;100945.86;1716942;83;20144;-74
2022/01/24 04:59:08;;;;;;;;;;;;;;;-8.00;94.58;100948.35;1708382;83;20099;-74
2022/01/24 05:01:34;;;;;;;;;;;;;;;-8.06;94.20;100957.83;1692308;83;20121;-73
2022/01/24 05:04:00;;;;;;;;;;;;;;;-8.17;94.18;100961.30;1706084;83;20174;-77
2022/01/24 05:06:27;;;;;;;;;;;;;;;-8.25;94.48;100956.77;1717094;83;20199;-77
2022/01/24 05:08:54;;;;;;;;;;;;;;;-8.32;94.51;100959.23;1712466;83;20184;-76
2022/01/24 05:12:08;;;;;;;;;;;;;;;-8.36;94.77;100963.74;1705780;84;21957;-77
2022/01/24 05:24:37;;;;;;;;;;;;;;;-8.60;94.27;100964.44;1685700;84;21811;-81
2022/01/24 05:27:04;;;;;;;;;;;;;;;-8.60;94.13;100963.10;1705777;83;20100;-79
2022/01/24 05:29:31;;;;;;;;;;;;;;;-8.66;93.59;100960.58;1704754;84;20621;-77
2022/01/24 05:31:57;;;;;;;;;;;;;;;-8.71;93.29;100954.08;1677328;85;20146;-79
2022/01/24 05:34:23;;;;;;;;;;;;;;;-8.79;92.86;100970.83;1677745;85;20433;-76
2022/01/24 05:36:50;;;;;;;;;;;;;;;-8.87;92.79;100972.10;1677351;85;21832;-77
2022/01/24 05:39:16;;;;;;;;;;;;;;;-8.95;92.75;100976.53;1677558;84;20143;-76
2022/01/24 05:41:42;;;;;;;;;;;;;;;-9.01;92.99;100987.29;1677407;85;20311;-80
2022/01/24 05:44:09;;;;;;;;;;;;;;;-9.04;93.17;100987.11;1677399;84;20162;-83
2022/01/24 05:46:35;;;;;;;;;;;;;;;-9.08;93.16;100972.93;1677395;84;20213;-77
2022/01/24 05:49:01;;;;;;;;;;;;;;;-9.14;93.03;100993.00;1697310;84;21107;-77
2022/01/24 05:51:29;;;;;;;;;;;;;;;-9.18;93.58;100993.45;1705644;83;20132;-73
2022/01/24 05:53:55;;;;;;;;;;;;;;;-9.22;93.50;100998.25;1706049;83;20470;-79
2022/01/24 05:56:21;;;;;;;;;;;;;;;-9.20;93.79;101005.58;1691222;83;20774;-75
2022/01/24 05:58:47;;;;;;;;;;;;;;;-9.20;93.78;101004.25;1697558;84;20144;-75
2022/01/24 06:01:14;;;;;;;;;;;;;;;-9.21;93.60;101002.58;1684557;83;21040;-77
2022/01/24 06:03:40;;;;;;;;;;;;;;;-9.24;93.60;101004.73;1677471;84;20991;-77
2022/01/24 06:06:08;;;;;;;;;;;;;;;-9.35;93.19;101002.64;1677433;84;20182;-80
2022/01/24 06:08:35;;;;;;;;;;;;;;;-9.44;93.50;101007.54;1686622;84;20335;-82
2022/01/24 06:11:01;;;;;;;;;;;;;;;-9.49;94.00;101013.80;1712128;83;20438;-81
2022/01/24 06:13:28;;;;;;;;;;;;;;;-9.49;94.21;101024.44;1716932;83;21773;-74
2022/01/24 06:15:54;;;;;;;;;;;;;;;-9.51;94.09;101031.73;1716809;83;20186;-74
2022/01/24 06:18:21;;;;;;;;;;;;;;;-9.52;94.17;101037.20;1716896;83;20118;-74
2022/01/24 06:20:47;;;;;;;;;;;;;;;-9.55;94.31;101034.84;1716883;83;20167;-73
2022/01/24 06:23:17;;;;;;;;;;;;;;;-9.54;94.38;101033.36;1716789;83;20164;-77
2022/01/24 06:25:43;;;;;;;;;;;;;;;-9.53;94.46;101039.52;1708410;83;21534;-77
2022/01/24 06:28:09;;;;;;;;;;;;;;;-9.50;94.90;101042.70;1698949;83;20205;-76
2022/01/24 06:30:36;;;;;;;;;;;;;;;-9.50;94.63;101042.70;1688115;85;20521;-78
2022/01/24 06:33:02;;;;;;;;;;;;;;;-9.52;94.76;101038.03;1688124;85;20133;-76
2022/01/24 06:35:28;;;;;;;;;;;;;;;-9.52;94.96;101036.70;1688080;85;20472;-76
2022/01/24 06:37:55;;;;;;;;;;;;;;;-9.49;94.97;101028.92;1688168;85;21973;-78
2022/01/24 06:40:21;;;;;;;;;;;;;;;-9.40;95.21;101031.52;1688419;83;20176;-77
2022/01/24 06:42:47;;;;;;;;;;;;;;;-9.30;95.38;101030.12;1688071;85;20126;-80
2022/01/24 06:45:13;;;;;;;;;;;;;;;-9.23;95.00;101022.34;1688391;85;20174;-83
2022/01/24 06:47:44;;;;;;;;;;;;;;;-9.19;94.73;101029.03;1688195;85;20154;-78
2022/01/24 06:50:10;;;;;;;;;;;;;;;-9.20;94.53;101022.88;1692783;83;20609;-84
2022/01/24 06:52:36;;;;;;;;;;;;;;;-9.21;94.39;101026.52;1700924;83;20129;-79
2022/01/24 06:55:03;;;;;;;;;;;;;;;-9.20;94.27;101021.55;1707068;83;20516;-77
2022/01/24 06:57:29;;;;;;;;;;;;;;;-9.16;94.47;101018.08;1688223;83;20530;-78
2022/01/24 06:59:56;;;;;;;;;;;;;;;-9.13;93.99;101023.10;1688196;83;20138;-79
2022/01/24 07:02:22;;;;;;;;;;;;;;;-9.12;93.43;101022.11;1693508;82;21581;-77
2022/01/24 07:04:48;;;;;;;;;;;;;;;-9.12;93.36;101027.44;1716998;82;20115;-80
2022/01/24 07:07:14;;;;;;;;;;;;;;;-9.11;93.34;101041.08;1700769;83;20560;-75
2022/01/24 07:09:41;;;;;;;;;;;;;;;-9.11;93.01;101040.58;1683469;85;20745;-75
2022/01/24 07:12:08;;;;;;;;;;;;;;;-9.11;93.08;101044.58;1683414;84;20470;-74
2022/01/24 07:14:35;;;;;;;;;;;;;;;-9.04;93.16;101050.13;1691081;84;21795;-75
2022/01/24 07:19:31;;;;;;;;;;;;;;;-8.93;92.38;101062.37;1695901;84;32386;-78
2022/01/24 07:21:59;;;;;;;;;;;;;;;-8.95;91.73;101054.53;1705042;83;20172;-77
2022/01/24 07:24:25;;;;;;;;;;;;;;;-8.99;91.31;101055.83;1704961;84;20487;-78
2022/01/24 07:26:52;;;;;;;;;;;;;;;-9.04;91.02;101061.60;1705542;83;21189;-73
2022/01/24 07:29:18;;;;;;;;;;;;;;;-9.07;90.70;101057.08;1705536;84;20155;-73
2022/01/24 07:31:46;;;;;;;;;;;;;;;-9.09;90.67;101055.06;1705529;84;20131;-74
2022/01/24 07:34:14;;;;;;;;;;;;;;;-9.08;90.44;101058.06;1705357;84;20180;-73
2022/01/24 07:36:40;;;;;;;;;;;;;;;-9.05;90.71;101056.44;1704553;83;21008;-70
2022/01/24 07:39:06;;;;;;;;;;;;;;;-8.99;90.70;101059.81;1705263;83;21144;-75
2022/01/24 07:41:34;;;;;;;;;;;;;;;-8.94;90.62;101057.53;1705577;84;20127;-73
2022/01/24 07:44:01;;;;;;;;;;;;;;;-8.89;90.60;101055.25;1705872;84;20190;-72
2022/01/24 07:46:28;;;;;;;;;;;;;;;-8.88;90.25;101062.25;1704825;84;20777;-80
2022/01/24 07:48:55;;;;;;;;;;;;;;;-8.89;90.40;101064.56;1693080;84;20214;-74
2022/01/24 07:51:21;;;;;;;;;;;;;;;-8.83;91.09;101063.13;1677219;85;21522;-75
2022/01/24 07:53:47;;;;;;;;;;;;;;;-8.78;91.15;101059.51;1677232;85;20142;-77
2022/01/24 07:56:13;;;;;;;;;;;;;;;-8.72;91.16;101062.39;1677289;85;20142;-74
2022/01/24 07:58:44;;;;;;;;;;;;;;;-8.71;91.16;101057.41;1677116;85;20122;-78
2022/01/24 08:01:12;;;;;;;;;;;;;;;-8.65;91.54;101062.58;1677124;85;20203;-80
2022/01/24 08:03:39;;;;;;;;;;;;;;;-8.55;91.62;101058.49;1677315;84;21101;-77
2022/01/24 08:06:05;;;;;;;;;;;;;;;-8.51;91.67;101050.53;1677109;85;20190;-82
2022/01/24 08:08:32;;;;;;;;;;;;;;;-8.51;91.58;101052.70;1677282;85;20198;-74
2022/01/24 08:10:58;;;;;;;;;;;;;;;-8.51;91.41;101050.53;1686049;85;20177;-77
2022/01/24 08:13:26;;;;;;;;;;;;;;;-8.47;91.84;101051.89;1687658;85;20149;-76
2022/01/24 08:15:53;;;;;;;;;;;;;;;-8.38;91.97;101044.30;1687500;85;21153;-77
2022/01/24 08:18:19;;;;;;;;;;;;;;;-8.26;91.82;101044.84;1704276;83;20162;-77
2022/01/24 08:20:46;;;;;;;;;;;;;;;-8.20;91.14;101046.87;1695487;83;20222;-81
2022/01/24 08:23:12;;;;;;;;;;;;;;;-8.16;91.07;101033.09;1695498;83;20226;-80
2022/01/24 08:25:39;;;;;;;;;;;;;;;-8.03;91.24;101034.79;1686782;85;20125;-81
2022/01/24 08:28:05;;;;;;;;;;;;;;;-7.91;91.40;101027.35;1687205;85;21141;-82
2022/01/24 08:30:33;;;;;;;;;;;;;;;-7.76;90.80;101032.91;1688593;83;20133;-73
2022/01/24 08:32:59;;;;;;;;;;;;;;;-7.72;91.04;101020.93;1703654;83;20170;-74
2022/01/24 08:35:25;;;;;;;;;;;;;;;-7.66;90.86;101030.95;1687426;85;20178;-77
2022/01/24 08:37:52;;;;;;;;;;;;;;;-7.66;89.95;101027.78;1687748;85;20209;-86
2022/01/24 08:40:26;;;;;;;;;;;;;;;-7.72;89.46;101031.09;1687875;85;21714;-83
2022/01/24 08:42:57;;;;;;;;;;;;;;;-7.75;90.63;101027.42;1704793;83;20139;-78
2022/01/24 08:48:06;;;;;;;;;;;;;;;-7.78;90.69;101013.58;1701886;83;20165;-82
2022/01/24 08:50:32;;;;;;;;;;;;;;;-7.74;91.01;101012.26;1703919;83;20191;-82
2022/01/24 08:53:03;;;;;;;;;;;;;;;-7.70;90.87;101021.11;1702622;83;21024;-83
2022/01/24 08:55:31;;;;;;;;;;;;;;;-7.68;91.01;101016.95;1700376;83;20470;-75
2022/01/24 08:57:58;;;;;;;;;;;;;;;-7.62;91.27;101026.13;1716262;83;20119;-80
2022/01/24 09:00:24;;;;;;;;;;;;;;;-7.66;90.56;101032.28;1717113;83;20139;-82
2022/01/24 09:02:50;;;;;;;;;;;;;;;-7.70;91.08;101017.11;1717126;83;20168;-78
2022/01/24 09:05:17;;;;;;;;;;;;;;;-7.66;91.65;101018.95;1716510;83;21004;-79
2022/01/24 09:07:44;;;;;;;;;;;;;;;-7.64;91.15;101010.79;1715774;83;21007;-77
2022/01/24 09:10:11;;;;;;;;;;;;;;;-7.66;91.21;101016.28;1713105;82;20205;-72
2022/01/24 09:12:37;;;;;;;;;;;;;;;-7.61;91.38;101018.47;1708821;83;20172;-74
2022/01/24 09:15:04;;;;;;;;;;;;;;;-7.56;91.85;101012.15;1698240;83;20143;-77
2022/01/24 09:17:30;;;;;;;;;;;;;;;-7.49;91.54;101015.30;1714383;83;22182;-74
2022/01/24 09:19:56;;;;;;;;;;;;;;;-7.47;91.18;101011.98;1701369;83;20493;-74
2022/01/24 09:22:22;;;;;;;;;;;;;;;-7.42;90.84;101002.16;1691205;83;20129;-78
2022/01/24 09:24:48;;;;;;;;;;;;;;;-7.39;90.74;101009.33;1704830;83;20203;-75
2022/01/24 09:27:15;;;;;;;;;;;;;;;-7.33;91.24;101003.34;1710669;83;20172;-74
2022/01/24 09:29:41;;;;;;;;;;;;;;;-7.29;90.23;101000.34;1716363;83;21443;-71
2022/01/24 09:32:08;;;;;;;;;;;;;;;-7.29;89.79;101001.18;1716518;83;20126;-69
2022/01/24 09:34:35;;;;;;;;;;;;;;;-7.25;89.63;101005.69;1716661;82;20465;-72
2022/01/24 09:37:02;;;;;;;;;;;;;;;-7.21;89.86;101004.36;1716491;83;20382;-70
2022/01/24 09:39:28;;;;;;;;;;;;;;;-7.11;89.66;100998.36;1716776;83;20182;-72
2022/01/24 09:41:54;;;;;;;;;;;;;;;-7.03;89.62;100998.38;1716401;83;21533;-71
2022/01/24 09:44:21;;;;;;;;;;;;;;;-6.92;89.83;100998.02;1716443;82;20100;-74
2022/01/24 09:46:47;;;;;;;;;;;;;;;-6.85;89.14;100996.34;1716665;83;20139;-75
2022/01/24 09:49:13;;;;;;;;;;;;;;;-6.80;88.89;100994.51;1715380;83;20245;-75
2022/01/24 09:51:40;;;;;;;;;;;;;;;-6.75;88.03;100991.66;1716250;83;20131;-77
2022/01/24 09:54:07;;;;;;;;;;;;;;;-6.71;87.96;100998.34;1716079;83;21072;-79
2022/01/24 09:56:34;;;;;;;;;;;;;;;-6.70;86.53;100992.50;1715998;83;20237;-78
2022/01/24 09:59:01;;;;;;;;;;;;;;;-6.74;87.59;100985.83;1716193;83;20317;-69
2022/01/24 10:01:30;;;;;;;;;;;;;;;-6.74;87.32;100985.33;1716012;83;20203;-75
2022/01/24 10:04:10;;;;;;;;;;;;;;;-6.74;87.00;100977.31;1694186;83;20315;-75
2022/01/24 10:07:16;;;;;;;;;;;;;;;-6.77;86.65;100981.66;1699914;83;21162;-76
2022/01/24 10:09:43;;;;;;;;;;;;;;;-6.78;86.73;100974.64;1686746;84;20157;-73
2022/01/24 10:17:37;;;;;;;;;;;;;;;-6.75;86.88;100967.62;1691454;85;20201;-80
2022/01/24 10:20:27;;;;;;;;;;;;;;;-6.69;86.74;100964.28;1691596;85;21541;-86
2022/01/24 10:23:16;;;;;;;;;;;;;;;-6.60;86.83;100964.27;1692811;83;20170;-86
2022/01/24 10:25:59;;;;;;;;;;;;;;;-6.58;85.58;100967.61;1691068;85;20164;-80
2022/01/24 10:28:25;;;;;;;;;;;;;;;-6.54;86.24;100961.76;1691975;83;20495;-79
2022/01/24 10:31:15;;;;;;;;;;;;;;;-6.47;85.22;100956.56;1691578;85;20116;-79
2022/01/24 10:33:58;;;;;;;;;;;;;;;-6.43;85.30;100961.40;1691791;83;21116;-82
2022/01/24 10:36:37;;;;;;;;;;;;;;;-6.40;85.27;100958.38;1691719;83;20193;-80
2022/01/24 10:39:17;;;;;;;;;;;;;;;-6.32;84.74;100954.33;1691676;85;20154;-81
2022/01/24 10:41:55;;;;;;;;;;;;;;;-6.23;84.53;100955.13;1688521;84;20181;-82
2022/01/24 10:44:32;;;;;;;;;;;;;;;-6.19;84.04;100956.45;1692684;83;20181;-80
2022/01/24 10:47:16;;;;;;;;;;;;;;;-6.14;83.97;100948.75;1691513;83;21088;-79
2022/01/24 10:49:44;;;;;;;;;;;;;;;-6.07;85.59;100935.02;1691562;85;20129;-81
2022/01/24 10:52:17;;;;;;;;;;;;;;;-5.95;84.48;100939.48;1691268;83;20487;-80
2022/01/24 10:54:43;;;;;;;;;;;;;;;-5.89;83.78;100913.88;1691361;85;20158;-78
2022/01/24 10:57:11;;;;;;;;;;;;;;;-5.83;82.73;100922.52;1691697;85;20492;-80
2022/01/24 10:59:37;;;;;;;;;;;;;;;-5.77;82.85;100921.78;1700231;84;21520;-80
2022/01/24 11:02:04;;;;;;;;;;;;;;;-5.75;82.02;100921.09;1691480;85;20483;-81
2022/01/24 11:04:33;;;;;;;;;;;;;;;-5.75;81.94;100915.24;1691618;83;20142;-79
2022/01/24 11:07:01;;;;;;;;;;;;;;;-5.70;82.23;100905.35;1691714;85;20799;-82
2022/01/24 11:09:36;;;;;;;;;;;;;;;-5.58;82.09;100907.12;1691521;85;20173;-80
2022/01/24 11:12:13;;;;;;;;;;;;;;;-5.43;82.28;100902.16;1698357;84;21219;-80
2022/01/24 11:14:40;;;;;;;;;;;;;;;-5.25;81.94;100884.95;1699914;84;20456;-81
2022/01/24 11:17:09;;;;;;;;;;;;;;;-5.15;80.66;100894.87;1699950;84;20106;-79
2022/01/24 11:19:45;;;;;;;;;;;;;;;-5.08;80.65;100885.95;1699908;84;20184;-78
2022/01/24 11:22:22;;;;;;;;;;;;;;;-4.85;81.20;100871.67;1700029;84;20276;-78
2022/01/24 11:24:56;;;;;;;;;;;;;;;-4.57;79.30;100861.13;1696904;83;21140;-78
2022/01/24 11:27:21;;;;;;;;;;;;;;;-4.57;77.81;100866.48;1687756;85;20447;-77
2022/01/24 11:29:49;;;;;;;;;;;;;;;-4.58;77.92;100863.48;1687742;85;20459;-78
2022/01/24 11:32:38;;;;;;;;;;;;;;;-4.57;77.96;100865.14;1687668;83;20179;-78
2022/01/24 11:35:04;;;;;;;;;;;;;;;-4.56;76.92;100857.42;1687853;85;20191;-77
2022/01/24 11:37:36;;;;;;;;;;;;;;;-4.61;77.30;100863.84;1687906;85;22191;-77
2022/01/24 11:40:06;;;;;;;;;;;;;;;-4.61;77.70;100863.34;1687612;85;20182;-76
2022/01/24 11:42:35;;;;;;;;;;;;;;;-4.59;77.88;100857.80;1688053;85;20175;-78
2022/01/24 11:45:09;;;;;;;;;;;;;;;-4.68;77.27;100871.31;1687766;85;20119;-77
2022/01/24 11:47:34;;;;;;;;;;;;;;;-4.74;77.31;100865.35;1686682;85;20143;-78
2022/01/24 11:50:22;;;;;;;;;;;;;;;-4.75;77.90;100881.11;1687725;85;20127;-78
2022/01/24 11:52:48;;;;;;;;;;;;;;;-4.73;78.02;100871.04;1688325;83;20131;-77
2022/01/24 11:55:17;;;;;;;;;;;;;;;-4.72;78.93;100879.40;1687640;85;20470;-78
2022/01/24 11:57:47;;;;;;;;;;;;;;;-4.66;78.80;100875.98;1687582;85;20175;-79
2022/01/24 12:00:23;;;;;;;;;;;;;;;-4.62;78.19;100867.04;1687714;83;20160;-79
2022/01/24 12:02:52;;;;;;;;;;;;;;;-4.69;77.86;100867.48;1687893;83;21923;-79
2022/01/24 12:05:21;;;;;;;;;;;;;;;-4.75;77.69;100870.89;1687689;84;20172;-79
2022/01/24 12:07:53;;;;;;;;;;;;;;;-4.79;78.33;100874.95;1687986;85;20639;-79
2022/01/24 12:10:33;;;;;;;;;;;;;;;-4.77;78.72;100874.27;1687650;84;20649;-77
2022/01/24 12:13:00;;;;;;;;;;;;;;;-4.75;78.37;100863.69;1690904;84;20145;-77
2022/01/24 12:15:45;;;;;;;;;;;;;;;-4.73;78.60;100871.04;1691723;85;22209;-78
2022/01/24 12:18:14;;;;;;;;;;;;;;;-4.79;78.13;100869.59;1691536;85;20165;-77
2022/01/24 12:20:44;;;;;;;;;;;;;;;-4.81;78.56;100876.98;1691333;83;20185;-77
2022/01/24 12:23:21;;;;;;;;;;;;;;;-4.81;78.47;100876.48;1691569;83;20705;-77
2022/01/24 12:25:58;;;;;;;;;;;;;;;-4.81;78.50;100878.33;1691376;83;20320;-77
2022/01/24 12:28:25;;;;;;;;;;;;;;;-4.80;78.33;100881.33;1691715;83;21856;-78
2022/01/24 12:31:03;;;;;;;;;;;;;;;-4.81;78.67;100875.65;1691381;83;20173;-77
2022/01/24 12:33:36;;;;;;;;;;;;;;;-4.78;78.93;100873.94;1691888;85;20125;-78
2022/01/24 12:36:12;;;;;;;;;;;;;;;-4.78;77.72;100873.44;1691324;83;20455;-77
2022/01/24 12:38:44;;;;;;;;;;;;;;;-4.79;78.11;100870.94;1691474;85;20201;-78
2022/01/24 12:41:22;;;;;;;;;;;;;;;-4.77;78.37;100879.12;1691964;85;21905;-79
2022/01/24 12:44:12;;;;;;;;;;;;;;;-4.76;78.25;100890.16;1691532;84;20452;-79
2022/01/24 12:46:27;;;;;;;;;;;;;;;-4.71;77.79;100881.06;1692558;83;20128;-77
2022/01/24 12:48:55;;;;;;;;;;;;;;;-4.70;77.46;100881.39;1691588;83;20170;-77
2022/01/24 12:51:22;;;;;;;;;;;;;;;-4.60;77.76;100877.58;1691493;83;20480;-77
2022/01/24 12:53:51;;;;;;;;;;;;;;;-4.46;77.25;100861.49;1677661;85;21581;-78
2022/01/24 12:56:18;;;;;;;;;;;;;;;-4.35;77.36;100858.85;1691650;85;20130;-79
2022/01/24 12:58:46;;;;;;;;;;;;;;;-4.22;76.47;100866.23;1691862;85;20164;-78
2022/01/24 13:01:30;;;;;;;;;;;;;;;-4.10;75.82;100847.30;1682494;85;20501;-77
2022/01/24 13:03:59;;;;;;;;;;;;;;;-3.94;75.32;100862.31;1666503;84;20204;-78
2022/01/24 13:06:27;;;;;;;;;;;;;;;-3.53;75.95;100863.38;1710242;84;21001;-68
2022/01/24 13:08:58;;;;;;;;;;;;;;;-3.08;73.65;100862.61;1710809;84;20183;-69
2022/01/24 13:11:24;;;;;;;;;;;;;;;-2.95;72.53;100861.88;1709189;83;20208;-76
2022/01/24 13:14:01;;;;;;;;;;;;;;;-2.83;70.72;100849.53;1705288;84;20563;-70
2022/01/24 13:22:11;;;;;;;;;;;;;;;-2.25;69.23;100862.15;1597339;87;20156;-69
2022/01/24 13:24:39;;;;;;;;;;;;;;;-2.25;68.24;100853.56;1658557;84;20168;-68
2022/01/24 13:27:09;;;;;;;;;;;;;;;-2.27;68.25;100852.94;1673424;85;20565;-69
2022/01/24 13:29:38;;;;;;;;;;;;;;;-2.51;67.87;100859.67;1693183;84;20230;-70
2022/01/24 13:32:05;;;;;;;;;;;;;;;-2.79;68.15;100858.87;1693052;84;21830;-70
2022/01/24 13:34:32;;;;;;;;;;;;;;;-3.02;69.24;100865.34;1665281;84;20150;-70
2022/01/24 13:37:06;;;;;;;;;;;;;;;-3.19;68.99;100862.62;1693052;84;20198;-71
2022/01/24 13:39:33;;;;;;;;;;;;;;;-3.38;69.41;100872.67;1684487;84;20161;-70
2022/01/24 13:42:00;;;;;;;;;;;;;;;-3.57;69.58;100862.61;1693392;84;20185;-71
2022/01/24 13:44:26;;;;;;;;;;;;;;;-3.78;69.90;100873.64;1698798;84;21220;-70
2022/01/24 13:46:52;;;;;;;;;;;;;;;-3.96;70.27;100873.73;1693312;84;20140;-70
2022/01/24 13:49:19;;;;;;;;;;;;;;;-4.08;71.42;100876.11;1708221;83;20204;-70
2022/01/24 13:51:51;;;;;;;;;;;;;;;-4.15;71.88;100877.36;1705762;83;20158;-70
2022/01/24 13:54:26;;;;;;;;;;;;;;;-4.25;71.88;100878.16;1703127;82;20172;-71
2022/01/24 13:56:54;;;;;;;;;;;;;;;-4.36;72.57;100884.00;1675618;84;21150;-71
2022/01/24 13:59:28;;;;;;;;;;;;;;;-4.40;73.14;100876.00;1697478;83;20491;-72
2022/01/24 14:02:07;;;;;;;;;;;;;;;-4.49;73.10;100882.47;1684499;84;20196;-72
2022/01/24 14:04:52;;;;;;;;;;;;;;;-4.53;73.64;100883.35;1708701;83;20125;-73
2022/01/24 14:07:23;;;;;;;;;;;;;;;-4.57;73.86;100885.25;1701174;83;20347;-71
2022/01/24 14:10:01;;;;;;;;;;;;;;;-4.62;74.08;100897.05;1693327;84;21207;-71
2022/01/24 14:12:42;;;;;;;;;;;;;;;-4.66;74.78;100892.06;1688219;84;20133;-71
2022/01/24 14:15:18;;;;;;;;;;;;;;;-4.70;74.66;100893.95;1683946;85;20167;-71
2022/01/24 14:17:47;;;;;;;;;;;;;;;-4.73;74.83;100894.32;1683571;85;20485;-71
2022/01/24 14:20:16;;;;;;;;;;;;;;;-4.80;75.21;100891.54;1654103;86;20201;-70
2022/01/24 14:22:51;;;;;;;;;;;;;;;-4.86;75.43;100889.59;1656147;86;21186;-70
2022/01/24 14:25:31;;;;;;;;;;;;;;;-4.92;75.26;100908.23;1676791;85;20172;-71
2022/01/24 14:28:09;;;;;;;;;;;;;;;-4.99;75.59;100904.94;1677274;85;20127;-71
2022/01/24 14:30:42;;;;;;;;;;;;;;;-5.02;75.75;100901.80;1653939;85;21471;-71
2022/01/24 14:33:22;;;;;;;;;;;;;;;-5.09;75.66;100901.69;1677450;85;20152;-71
2022/01/24 14:36:00;;;;;;;;;;;;;;;-5.14;76.22;100899.22;1676898;84;21121;-70
2022/01/24 14:38:42;;;;;;;;;;;;;;;-5.17;76.28;100906.28;1677320;85;20160;-70
2022/01/24 14:41:18;;;;;;;;;;;;;;;-5.23;76.13;100897.15;1677136;85;20177;-71
2022/01/24 14:46:33;;;;;;;;;;;;;;;-5.35;76.84;100906.62;1677336;85;20203;-70
2022/01/24 14:49:03;;;;;;;;;;;;;;;-5.38;76.53;100913.16;1676710;85;21125;-70